sensor_id;sensor_type;location;lat;lon;timestamp;P1;durP1;ratioP1;P2;durP2;ratioP2
13568;SDS011;6856;51.460;7.158;2023-05-07T00:01:54;1.73;;;1.40;;
13568;SDS011;6856;51.460;7.158;2023-05-07T00:04:28;2.10;;;1.70;;
13568;SDS011;6856;51.460;7.158;2023-05-07T00:07:08;2.13;;;1.47;;
13568;SDS011;6856;51.460;7.158;2023-05-07T00:09:42;2.63;;;1.70;;
13568;SDS011;6856;51.460;7.158;2023-05-07T00:12:17;2.83;;;1.80;;
13568;SDS011;6856;51.460;7.158;2023-05-07T00:14:51;1.97;;;1.50;;
13568;SDS011;6856;51.460;7.158;2023-05-07T00:17:25;2.93;;;1.80;;
13568;SDS011;6856;51.460;7.158;2023-05-07T00:19:59;2.50;;;1.83;;
13568;SDS011;6856;51.460;7.158;2023-05-07T00:22:33;2.90;;;1.80;;
13568;SDS011;6856;51.460;7.158;2023-05-07T00:25:07;2.00;;;1.67;;
13568;SDS011;6856;51.460;7.158;2023-05-07T00:27:44;3.10;;;1.90;;
13568;SDS011;6856;51.460;7.158;2023-05-07T00:30:18;3.10;;;1.80;;
13568;SDS011;6856;51.460;7.158;2023-05-07T00:32:51;3.10;;;1.83;;
13568;SDS011;6856;51.460;7.158;2023-05-07T00:35:25;2.43;;;1.73;;
13568;SDS011;6856;51.460;7.158;2023-05-07T00:38:01;2.13;;;1.57;;
13568;SDS011;6856;51.460;7.158;2023-05-07T00:40:38;2.43;;;1.67;;
13568;SDS011;6856;51.460;7.158;2023-05-07T00:43:14;3.27;;;1.80;;
13568;SDS011;6856;51.460;7.158;2023-05-07T00:45:49;2.90;;;1.90;;
13568;SDS011;6856;51.460;7.158;2023-05-07T00:48:23;2.93;;;2.03;;
13568;SDS011;6856;51.460;7.158;2023-05-07T00:50:58;2.43;;;1.60;;
13568;SDS011;6856;51.460;7.158;2023-05-07T00:53:32;2.90;;;2.07;;
13568;SDS011;6856;51.460;7.158;2023-05-07T00:56:07;3.67;;;2.20;;
13568;SDS011;6856;51.460;7.158;2023-05-07T00:58:43;3.80;;;2.00;;
13568;SDS011;6856;51.460;7.158;2023-05-07T01:01:17;2.80;;;1.83;;
13568;SDS011;6856;51.460;7.158;2023-05-07T01:03:51;3.37;;;2.00;;
13568;SDS011;6856;51.460;7.158;2023-05-07T01:06:26;2.87;;;2.00;;
13568;SDS011;6856;51.460;7.158;2023-05-07T01:09:05;5.90;;;2.30;;
13568;SDS011;6856;51.460;7.158;2023-05-07T01:11:41;3.90;;;2.40;;
13568;SDS011;6856;51.460;7.158;2023-05-07T01:14:18;2.50;;;2.27;;
13568;SDS011;6856;51.460;7.158;2023-05-07T01:16:52;3.30;;;2.20;;
13568;SDS011;6856;51.460;7.158;2023-05-07T01:19:28;3.23;;;2.20;;
13568;SDS011;6856;51.460;7.158;2023-05-07T01:22:04;3.60;;;2.47;;
13568;SDS011;6856;51.460;7.158;2023-05-07T01:24:44;3.27;;;2.50;;
13568;SDS011;6856;51.460;7.158;2023-05-07T01:27:18;2.93;;;2.40;;
13568;SDS011;6856;51.460;7.158;2023-05-07T01:29:52;3.37;;;2.30;;
13568;SDS011;6856;51.460;7.158;2023-05-07T01:32:27;3.00;;;2.17;;
13568;SDS011;6856;51.460;7.158;2023-05-07T01:35:10;2.53;;;2.00;;
13568;SDS011;6856;51.460;7.158;2023-05-07T01:37:49;3.50;;;2.50;;
13568;SDS011;6856;51.460;7.158;2023-05-07T01:40:26;2.57;;;2.13;;
13568;SDS011;6856;51.460;7.158;2023-05-07T01:43:00;3.20;;;2.53;;
13568;SDS011;6856;51.460;7.158;2023-05-07T01:45:35;4.13;;;2.40;;
13568;SDS011;6856;51.460;7.158;2023-05-07T01:48:09;2.80;;;2.37;;
13568;SDS011;6856;51.460;7.158;2023-05-07T01:50:45;2.77;;;2.43;;
13568;SDS011;6856;51.460;7.158;2023-05-07T01:53:20;3.73;;;2.63;;
13568;SDS011;6856;51.460;7.158;2023-05-07T01:55:55;4.23;;;2.50;;
13568;SDS011;6856;51.460;7.158;2023-05-07T01:58:29;3.40;;;2.40;;
13568;SDS011;6856;51.460;7.158;2023-05-07T02:01:04;3.90;;;2.60;;
13568;SDS011;6856;51.460;7.158;2023-05-07T02:03:37;3.90;;;2.63;;
13568;SDS011;6856;51.460;7.158;2023-05-07T02:06:12;3.27;;;2.17;;
13568;SDS011;6856;51.460;7.158;2023-05-07T02:08:46;2.83;;;2.40;;
13568;SDS011;6856;51.460;7.158;2023-05-07T02:11:22;3.93;;;2.37;;
13568;SDS011;6856;51.460;7.158;2023-05-07T02:13:56;4.30;;;2.80;;
13568;SDS011;6856;51.460;7.158;2023-05-07T02:16:30;3.87;;;2.40;;
13568;SDS011;6856;51.460;7.158;2023-05-07T02:19:04;5.23;;;2.80;;
13568;SDS011;6856;51.460;7.158;2023-05-07T02:21:39;3.07;;;2.37;;
13568;SDS011;6856;51.460;7.158;2023-05-07T02:24:12;3.37;;;2.70;;
13568;SDS011;6856;51.460;7.158;2023-05-07T02:26:48;3.87;;;2.80;;
13568;SDS011;6856;51.460;7.158;2023-05-07T02:29:22;3.93;;;3.27;;
13568;SDS011;6856;51.460;7.158;2023-05-07T02:31:56;3.13;;;2.50;;
13568;SDS011;6856;51.460;7.158;2023-05-07T02:34:30;3.57;;;2.60;;
13568;SDS011;6856;51.460;7.158;2023-05-07T02:37:04;4.30;;;3.03;;
13568;SDS011;6856;51.460;7.158;2023-05-07T02:39:38;3.67;;;2.80;;
13568;SDS011;6856;51.460;7.158;2023-05-07T02:42:13;3.37;;;2.80;;
13568;SDS011;6856;51.460;7.158;2023-05-07T02:44:48;3.00;;;2.50;;
13568;SDS011;6856;51.460;7.158;2023-05-07T02:47:21;3.83;;;2.87;;
13568;SDS011;6856;51.460;7.158;2023-05-07T02:49:55;3.93;;;2.97;;
13568;SDS011;6856;51.460;7.158;2023-05-07T02:52:29;2.67;;;2.40;;
13568;SDS011;6856;51.460;7.158;2023-05-07T02:55:03;4.20;;;3.10;;
13568;SDS011;6856;51.460;7.158;2023-05-07T02:57:40;4.20;;;3.00;;
13568;SDS011;6856;51.460;7.158;2023-05-07T03:00:14;3.80;;;2.57;;
13568;SDS011;6856;51.460;7.158;2023-05-07T03:02:52;3.17;;;2.63;;
13568;SDS011;6856;51.460;7.158;2023-05-07T03:05:26;4.37;;;3.00;;
13568;SDS011;6856;51.460;7.158;2023-05-07T03:08:00;3.43;;;2.80;;
13568;SDS011;6856;51.460;7.158;2023-05-07T03:10:35;4.67;;;2.87;;
13568;SDS011;6856;51.460;7.158;2023-05-07T03:13:11;4.93;;;3.27;;
13568;SDS011;6856;51.460;7.158;2023-05-07T03:15:45;3.97;;;2.90;;
13568;SDS011;6856;51.460;7.158;2023-05-07T03:18:19;3.20;;;2.63;;
13568;SDS011;6856;51.460;7.158;2023-05-07T03:20:52;3.60;;;2.63;;
13568;SDS011;6856;51.460;7.158;2023-05-07T03:23:26;4.50;;;2.83;;
13568;SDS011;6856;51.460;7.158;2023-05-07T03:26:00;3.53;;;2.80;;
13568;SDS011;6856;51.460;7.158;2023-05-07T03:28:37;3.60;;;2.83;;
13568;SDS011;6856;51.460;7.158;2023-05-07T03:31:11;3.50;;;2.50;;
13568;SDS011;6856;51.460;7.158;2023-05-07T03:33:51;3.73;;;2.80;;
13568;SDS011;6856;51.460;7.158;2023-05-07T03:36:26;4.03;;;2.80;;
13568;SDS011;6856;51.460;7.158;2023-05-07T03:39:00;4.47;;;3.17;;
13568;SDS011;6856;51.460;7.158;2023-05-07T03:41:34;4.10;;;2.97;;
13568;SDS011;6856;51.460;7.158;2023-05-07T03:44:10;4.17;;;3.20;;
13568;SDS011;6856;51.460;7.158;2023-05-07T03:46:43;3.67;;;2.87;;
13568;SDS011;6856;51.460;7.158;2023-05-07T03:49:17;3.23;;;2.90;;
13568;SDS011;6856;51.460;7.158;2023-05-07T03:51:52;4.73;;;3.20;;
13568;SDS011;6856;51.460;7.158;2023-05-07T03:54:27;4.53;;;3.07;;
13568;SDS011;6856;51.460;7.158;2023-05-07T03:57:01;4.03;;;3.23;;
13568;SDS011;6856;51.460;7.158;2023-05-07T03:59:36;6.93;;;3.50;;
13568;SDS011;6856;51.460;7.158;2023-05-07T04:02:10;4.80;;;2.97;;
13568;SDS011;6856;51.460;7.158;2023-05-07T04:04:44;4.40;;;3.67;;
13568;SDS011;6856;51.460;7.158;2023-05-07T04:07:18;4.73;;;3.40;;
13568;SDS011;6856;51.460;7.158;2023-05-07T04:09:53;4.80;;;3.83;;
13568;SDS011;6856;51.460;7.158;2023-05-07T04:12:28;4.80;;;4.07;;
13568;SDS011;6856;51.460;7.158;2023-05-07T04:15:06;5.27;;;4.30;;
13568;SDS011;6856;51.460;7.158;2023-05-07T04:17:47;4.60;;;4.00;;
13568;SDS011;6856;51.460;7.158;2023-05-07T04:20:20;5.47;;;4.70;;
13568;SDS011;6856;51.460;7.158;2023-05-07T04:22:54;5.50;;;4.73;;
13568;SDS011;6856;51.460;7.158;2023-05-07T04:25:28;5.33;;;4.60;;
13568;SDS011;6856;51.460;7.158;2023-05-07T04:28:02;4.63;;;4.07;;
13568;SDS011;6856;51.460;7.158;2023-05-07T04:30:38;6.13;;;5.53;;
13568;SDS011;6856;51.460;7.158;2023-05-07T04:33:13;6.20;;;5.00;;
13568;SDS011;6856;51.460;7.158;2023-05-07T04:35:48;5.10;;;4.57;;
13568;SDS011;6856;51.460;7.158;2023-05-07T04:38:22;6.53;;;4.93;;
13568;SDS011;6856;51.460;7.158;2023-05-07T04:40:57;5.47;;;4.97;;
13568;SDS011;6856;51.460;7.158;2023-05-07T04:43:36;6.03;;;4.87;;
13568;SDS011;6856;51.460;7.158;2023-05-07T04:46:11;6.83;;;5.50;;
13568;SDS011;6856;51.460;7.158;2023-05-07T04:48:46;6.60;;;5.93;;
13568;SDS011;6856;51.460;7.158;2023-05-07T04:51:19;5.90;;;5.30;;
13568;SDS011;6856;51.460;7.158;2023-05-07T04:53:53;5.50;;;4.97;;
13568;SDS011;6856;51.460;7.158;2023-05-07T04:56:27;5.20;;;4.67;;
13568;SDS011;6856;51.460;7.158;2023-05-07T04:59:01;6.43;;;5.83;;
13568;SDS011;6856;51.460;7.158;2023-05-07T05:01:36;5.30;;;4.60;;
13568;SDS011;6856;51.460;7.158;2023-05-07T05:04:11;6.03;;;5.43;;
13568;SDS011;6856;51.460;7.158;2023-05-07T05:06:45;5.53;;;5.03;;
13568;SDS011;6856;51.460;7.158;2023-05-07T05:09:20;6.70;;;6.00;;
13568;SDS011;6856;51.460;7.158;2023-05-07T05:11:53;6.20;;;5.60;;
13568;SDS011;6856;51.460;7.158;2023-05-07T05:14:29;6.43;;;5.73;;
13568;SDS011;6856;51.460;7.158;2023-05-07T05:17:04;5.50;;;5.00;;
13568;SDS011;6856;51.460;7.158;2023-05-07T05:19:38;5.57;;;5.03;;
13568;SDS011;6856;51.460;7.158;2023-05-07T05:22:12;5.97;;;4.97;;
13568;SDS011;6856;51.460;7.158;2023-05-07T05:24:46;6.00;;;5.40;;
13568;SDS011;6856;51.460;7.158;2023-05-07T05:27:20;4.93;;;4.43;;
13568;SDS011;6856;51.460;7.158;2023-05-07T05:29:54;5.10;;;4.60;;
13568;SDS011;6856;51.460;7.158;2023-05-07T05:32:30;7.03;;;4.00;;
13568;SDS011;6856;51.460;7.158;2023-05-07T05:35:05;5.37;;;4.27;;
13568;SDS011;6856;51.460;7.158;2023-05-07T05:37:40;5.03;;;4.40;;
13568;SDS011;6856;51.460;7.158;2023-05-07T05:40:14;4.80;;;4.30;;
13568;SDS011;6856;51.460;7.158;2023-05-07T05:42:48;4.77;;;4.27;;
13568;SDS011;6856;51.460;7.158;2023-05-07T05:45:22;4.87;;;4.37;;
13568;SDS011;6856;51.460;7.158;2023-05-07T05:47:57;5.10;;;4.17;;
13568;SDS011;6856;51.460;7.158;2023-05-07T05:50:31;6.17;;;4.43;;
13568;SDS011;6856;51.460;7.158;2023-05-07T05:53:07;3.80;;;3.40;;
13568;SDS011;6856;51.460;7.158;2023-05-07T05:55:41;4.70;;;3.57;;
13568;SDS011;6856;51.460;7.158;2023-05-07T05:58:15;5.30;;;3.90;;
13568;SDS011;6856;51.460;7.158;2023-05-07T06:00:49;4.17;;;3.57;;
13568;SDS011;6856;51.460;7.158;2023-05-07T06:03:26;6.90;;;3.90;;
13568;SDS011;6856;51.460;7.158;2023-05-07T06:06:00;3.97;;;2.83;;
13568;SDS011;6856;51.460;7.158;2023-05-07T06:08:34;4.50;;;3.03;;
13568;SDS011;6856;51.460;7.158;2023-05-07T06:11:07;5.20;;;3.27;;
13568;SDS011;6856;51.460;7.158;2023-05-07T06:13:41;3.87;;;3.20;;
13568;SDS011;6856;51.460;7.158;2023-05-07T06:16:15;4.67;;;3.10;;
13568;SDS011;6856;51.460;7.158;2023-05-07T06:18:50;2.90;;;2.37;;
13568;SDS011;6856;51.460;7.158;2023-05-07T06:21:24;3.77;;;2.40;;
13568;SDS011;6856;51.460;7.158;2023-05-07T06:23:58;3.33;;;2.53;;
13568;SDS011;6856;51.460;7.158;2023-05-07T06:26:32;4.00;;;2.40;;
13568;SDS011;6856;51.460;7.158;2023-05-07T06:29:06;2.70;;;2.00;;
13568;SDS011;6856;51.460;7.158;2023-05-07T06:31:40;3.10;;;2.40;;
13568;SDS011;6856;51.460;7.158;2023-05-07T06:34:16;3.17;;;2.00;;
13568;SDS011;6856;51.460;7.158;2023-05-07T06:36:50;3.43;;;2.23;;
13568;SDS011;6856;51.460;7.158;2023-05-07T06:39:23;2.63;;;2.00;;
13568;SDS011;6856;51.460;7.158;2023-05-07T06:41:57;2.50;;;1.87;;
13568;SDS011;6856;51.460;7.158;2023-05-07T06:44:31;2.57;;;2.20;;
13568;SDS011;6856;51.460;7.158;2023-05-07T06:47:07;2.77;;;2.07;;
13568;SDS011;6856;51.460;7.158;2023-05-07T06:49:42;2.47;;;1.73;;
13568;SDS011;6856;51.460;7.158;2023-05-07T06:52:16;1.80;;;1.57;;
13568;SDS011;6856;51.460;7.158;2023-05-07T06:54:49;1.67;;;1.50;;
13568;SDS011;6856;51.460;7.158;2023-05-07T06:57:23;1.73;;;1.60;;
13568;SDS011;6856;51.460;7.158;2023-05-07T06:59:57;4.03;;;1.70;;
13568;SDS011;6856;51.460;7.158;2023-05-07T07:02:31;2.30;;;1.57;;
13568;SDS011;6856;51.460;7.158;2023-05-07T07:05:08;1.67;;;1.57;;
13568;SDS011;6856;51.460;7.158;2023-05-07T07:07:42;3.07;;;1.73;;
13568;SDS011;6856;51.460;7.158;2023-05-07T07:10:16;2.23;;;1.40;;
13568;SDS011;6856;51.460;7.158;2023-05-07T07:12:49;2.70;;;1.60;;
13568;SDS011;6856;51.460;7.158;2023-05-07T07:15:25;2.63;;;1.50;;
13568;SDS011;6856;51.460;7.158;2023-05-07T07:17:59;2.73;;;1.57;;
13568;SDS011;6856;51.460;7.158;2023-05-07T07:20:35;4.13;;;1.33;;
13568;SDS011;6856;51.460;7.158;2023-05-07T07:23:09;1.97;;;1.40;;
13568;SDS011;6856;51.460;7.158;2023-05-07T07:25:43;1.77;;;1.30;;
13568;SDS011;6856;51.460;7.158;2023-05-07T07:28:17;2.70;;;1.53;;
13568;SDS011;6856;51.460;7.158;2023-05-07T07:30:53;2.70;;;1.57;;
13568;SDS011;6856;51.460;7.158;2023-05-07T07:33:27;2.90;;;1.60;;
13568;SDS011;6856;51.460;7.158;2023-05-07T07:36:04;2.13;;;1.40;;
13568;SDS011;6856;51.460;7.158;2023-05-07T07:38:39;2.37;;;1.60;;
13568;SDS011;6856;51.460;7.158;2023-05-07T07:41:13;1.93;;;1.70;;
13568;SDS011;6856;51.460;7.158;2023-05-07T07:43:47;2.20;;;1.50;;
13568;SDS011;6856;51.460;7.158;2023-05-07T07:46:21;2.83;;;1.70;;
13568;SDS011;6856;51.460;7.158;2023-05-07T07:48:55;2.23;;;1.47;;
13568;SDS011;6856;51.460;7.158;2023-05-07T07:51:34;2.30;;;1.50;;
13568;SDS011;6856;51.460;7.158;2023-05-07T07:54:08;2.37;;;1.67;;
13568;SDS011;6856;51.460;7.158;2023-05-07T07:56:42;2.47;;;1.70;;
13568;SDS011;6856;51.460;7.158;2023-05-07T07:59:16;4.53;;;1.90;;
13568;SDS011;6856;51.460;7.158;2023-05-07T08:01:50;2.17;;;1.67;;
13568;SDS011;6856;51.460;7.158;2023-05-07T08:04:28;2.00;;;1.50;;
13568;SDS011;6856;51.460;7.158;2023-05-07T08:07:06;3.07;;;2.20;;
13568;SDS011;6856;51.460;7.158;2023-05-07T08:09:40;2.00;;;1.50;;
13568;SDS011;6856;51.460;7.158;2023-05-07T08:12:14;2.43;;;1.90;;
13568;SDS011;6856;51.460;7.158;2023-05-07T08:14:48;1.87;;;1.50;;
13568;SDS011;6856;51.460;7.158;2023-05-07T08:17:22;3.60;;;1.97;;
13568;SDS011;6856;51.460;7.158;2023-05-07T08:19:55;2.53;;;1.90;;
13568;SDS011;6856;51.460;7.158;2023-05-07T08:22:31;2.37;;;1.87;;
13568;SDS011;6856;51.460;7.158;2023-05-07T08:25:05;2.60;;;1.90;;
13568;SDS011;6856;51.460;7.158;2023-05-07T08:27:39;2.87;;;1.73;;
13568;SDS011;6856;51.460;7.158;2023-05-07T08:30:13;2.80;;;1.80;;
13568;SDS011;6856;51.460;7.158;2023-05-07T08:32:48;2.90;;;1.67;;
13568;SDS011;6856;51.460;7.158;2023-05-07T08:35:22;2.30;;;1.87;;
13568;SDS011;6856;51.460;7.158;2023-05-07T08:37:58;2.97;;;1.77;;
13568;SDS011;6856;51.460;7.158;2023-05-07T08:40:33;2.97;;;1.80;;
13568;SDS011;6856;51.460;7.158;2023-05-07T08:43:11;3.30;;;1.90;;
13568;SDS011;6856;51.460;7.158;2023-05-07T08:45:47;2.23;;;1.90;;
13568;SDS011;6856;51.460;7.158;2023-05-07T08:48:27;2.47;;;1.83;;
13568;SDS011;6856;51.460;7.158;2023-05-07T08:51:05;2.63;;;1.80;;
13568;SDS011;6856;51.460;7.158;2023-05-07T08:53:41;3.80;;;1.92;;
13568;SDS011;6856;51.460;7.158;2023-05-07T08:56:16;2.10;;;1.80;;
13568;SDS011;6856;51.460;7.158;2023-05-07T08:58:53;2.50;;;1.93;;
13568;SDS011;6856;51.460;7.158;2023-05-07T09:01:30;4.75;;;1.98;;
13568;SDS011;6856;51.460;7.158;2023-05-07T09:04:03;2.22;;;1.83;;
13568;SDS011;6856;51.460;7.158;2023-05-07T09:06:38;2.13;;;1.67;;
13568;SDS011;6856;51.460;7.158;2023-05-07T09:09:15;2.35;;;1.73;;
13568;SDS011;6856;51.460;7.158;2023-05-07T09:11:56;2.87;;;1.87;;
13568;SDS011;6856;51.460;7.158;2023-05-07T09:14:31;2.42;;;1.83;;
13568;SDS011;6856;51.460;7.158;2023-05-07T09:17:07;2.28;;;1.40;;
13568;SDS011;6856;51.460;7.158;2023-05-07T09:19:41;2.60;;;2.17;;
13568;SDS011;6856;51.460;7.158;2023-05-07T09:22:19;3.05;;;1.88;;
13568;SDS011;6856;51.460;7.158;2023-05-07T09:24:54;3.25;;;2.03;;
13568;SDS011;6856;51.460;7.158;2023-05-07T09:27:28;2.78;;;2.17;;
13568;SDS011;6856;51.460;7.158;2023-05-07T09:30:04;2.78;;;2.05;;
13568;SDS011;6856;51.460;7.158;2023-05-07T09:32:39;1.73;;;1.52;;
13568;SDS011;6856;51.460;7.158;2023-05-07T09:35:16;2.88;;;1.88;;
13568;SDS011;6856;51.460;7.158;2023-05-07T09:37:53;3.25;;;1.88;;
13568;SDS011;6856;51.460;7.158;2023-05-07T09:40:30;2.63;;;1.55;;
13568;SDS011;6856;51.460;7.158;2023-05-07T09:43:10;2.58;;;2.10;;
13568;SDS011;6856;51.460;7.158;2023-05-07T09:45:47;3.08;;;1.85;;
13568;SDS011;6856;51.460;7.158;2023-05-07T09:48:23;2.17;;;1.70;;
13568;SDS011;6856;51.460;7.158;2023-05-07T09:50:58;3.58;;;2.30;;
13568;SDS011;6856;51.460;7.158;2023-05-07T09:53:38;1.98;;;1.70;;
13568;SDS011;6856;51.460;7.158;2023-05-07T09:56:16;2.83;;;2.00;;
13568;SDS011;6856;51.460;7.158;2023-05-07T09:58:52;2.13;;;1.58;;
13568;SDS011;6856;51.460;7.158;2023-05-07T10:01:30;2.13;;;1.80;;
13568;SDS011;6856;51.460;7.158;2023-05-07T10:04:06;2.50;;;1.80;;
13568;SDS011;6856;51.460;7.158;2023-05-07T10:06:41;2.78;;;2.25;;
13568;SDS011;6856;51.460;7.158;2023-05-07T10:09:17;3.03;;;2.10;;
13568;SDS011;6856;51.460;7.158;2023-05-07T10:11:53;3.38;;;1.73;;
13568;SDS011;6856;51.460;7.158;2023-05-07T10:14:28;2.53;;;1.60;;
13568;SDS011;6856;51.460;7.158;2023-05-07T10:17:02;2.05;;;1.83;;
13568;SDS011;6856;51.460;7.158;2023-05-07T10:19:37;2.17;;;1.90;;
13568;SDS011;6856;51.460;7.158;2023-05-07T10:22:12;1.98;;;1.65;;
13568;SDS011;6856;51.460;7.158;2023-05-07T10:24:49;2.25;;;1.98;;
13568;SDS011;6856;51.460;7.158;2023-05-07T10:27:29;2.85;;;2.05;;
13568;SDS011;6856;51.460;7.158;2023-05-07T10:30:07;4.03;;;1.95;;
13568;SDS011;6856;51.460;7.158;2023-05-07T10:32:54;2.47;;;1.75;;
13568;SDS011;6856;51.460;7.158;2023-05-07T10:35:37;1.95;;;1.58;;
13568;SDS011;6856;51.460;7.158;2023-05-07T10:38:15;2.92;;;2.00;;
13568;SDS011;6856;51.460;7.158;2023-05-07T10:40:50;2.58;;;1.75;;
13568;SDS011;6856;51.460;7.158;2023-05-07T10:43:25;2.08;;;1.58;;
13568;SDS011;6856;51.460;7.158;2023-05-07T10:46:14;2.00;;;1.70;;
13568;SDS011;6856;51.460;7.158;2023-05-07T10:49:11;2.15;;;1.63;;
13568;SDS011;6856;51.460;7.158;2023-05-07T10:51:45;1.83;;;1.40;;
13568;SDS011;6856;51.460;7.158;2023-05-07T10:54:47;1.40;;;1.30;;
13568;SDS011;6856;51.460;7.158;2023-05-07T10:57:56;1.63;;;1.30;;
13568;SDS011;6856;51.460;7.158;2023-05-07T11:01:04;2.38;;;1.40;;
13568;SDS011;6856;51.460;7.158;2023-05-07T11:04:12;3.53;;;2.05;;
13568;SDS011;6856;51.460;7.158;2023-05-07T11:10:03;2.25;;;1.70;;
13568;SDS011;6856;51.460;7.158;2023-05-07T11:12:54;3.78;;;2.08;;
13568;SDS011;6856;51.460;7.158;2023-05-07T11:18:25;2.85;;;2.10;;
13568;SDS011;6856;51.460;7.158;2023-05-07T11:21:31;2.28;;;1.85;;
13568;SDS011;6856;51.460;7.158;2023-05-07T11:24:07;2.42;;;2.08;;
13568;SDS011;6856;51.460;7.158;2023-05-07T11:26:44;1.92;;;1.58;;
13568;SDS011;6856;51.460;7.158;2023-05-07T11:29:20;2.30;;;1.83;;
13568;SDS011;6856;51.460;7.158;2023-05-07T11:31:55;1.95;;;1.55;;
13568;SDS011;6856;51.460;7.158;2023-05-07T11:34:31;2.75;;;1.80;;
13568;SDS011;6856;51.460;7.158;2023-05-07T11:37:05;2.70;;;1.70;;
13568;SDS011;6856;51.460;7.158;2023-05-07T11:39:39;2.63;;;1.50;;
13568;SDS011;6856;51.460;7.158;2023-05-07T11:42:24;2.75;;;1.80;;
13568;SDS011;6856;51.460;7.158;2023-05-07T11:45:00;2.78;;;2.00;;
13568;SDS011;6856;51.460;7.158;2023-05-07T11:47:35;2.30;;;1.75;;
13568;SDS011;6856;51.460;7.158;2023-05-07T11:50:10;1.98;;;1.77;;
13568;SDS011;6856;51.460;7.158;2023-05-07T11:52:49;3.50;;;2.03;;
13568;SDS011;6856;51.460;7.158;2023-05-07T11:58:25;2.47;;;2.28;;
13568;SDS011;6856;51.460;7.158;2023-05-07T12:00:59;3.35;;;2.55;;
13568;SDS011;6856;51.460;7.158;2023-05-07T12:03:33;3.03;;;2.53;;
13568;SDS011;6856;51.460;7.158;2023-05-07T12:06:09;3.30;;;2.28;;
13568;SDS011;6856;51.460;7.158;2023-05-07T12:08:44;3.75;;;2.85;;
13568;SDS011;6856;51.460;7.158;2023-05-07T12:11:21;3.00;;;2.70;;
13568;SDS011;6856;51.460;7.158;2023-05-07T12:13:57;3.30;;;2.38;;
13568;SDS011;6856;51.460;7.158;2023-05-07T12:16:31;3.38;;;2.78;;
13568;SDS011;6856;51.460;7.158;2023-05-07T12:19:05;3.35;;;2.80;;
13568;SDS011;6856;51.460;7.158;2023-05-07T12:21:42;4.60;;;3.35;;
13568;SDS011;6856;51.460;7.158;2023-05-07T12:24:18;2.78;;;2.47;;
13568;SDS011;6856;51.460;7.158;2023-05-07T12:26:52;4.07;;;2.88;;
13568;SDS011;6856;51.460;7.158;2023-05-07T12:29:26;5.30;;;2.70;;
13568;SDS011;6856;51.460;7.158;2023-05-07T12:32:00;3.22;;;2.85;;
13568;SDS011;6856;51.460;7.158;2023-05-07T12:34:37;4.22;;;3.33;;
13568;SDS011;6856;51.460;7.158;2023-05-07T12:37:22;4.28;;;3.60;;
13568;SDS011;6856;51.460;7.158;2023-05-07T12:40:06;4.38;;;3.60;;
13568;SDS011;6856;51.460;7.158;2023-05-07T12:42:41;3.80;;;2.78;;
13568;SDS011;6856;51.460;7.158;2023-05-07T12:45:17;4.47;;;3.08;;
13568;SDS011;6856;51.460;7.158;2023-05-07T12:47:50;3.70;;;2.88;;
13568;SDS011;6856;51.460;7.158;2023-05-07T12:50:24;3.72;;;2.80;;
13568;SDS011;6856;51.460;7.158;2023-05-07T12:52:59;3.55;;;2.60;;
13568;SDS011;6856;51.460;7.158;2023-05-07T12:55:40;3.47;;;2.22;;
13568;SDS011;6856;51.460;7.158;2023-05-07T12:58:16;2.63;;;2.30;;
13568;SDS011;6856;51.460;7.158;2023-05-07T13:00:53;2.55;;;2.22;;
13568;SDS011;6856;51.460;7.158;2023-05-07T13:03:32;4.20;;;2.78;;
13568;SDS011;6856;51.460;7.158;2023-05-07T13:06:08;3.65;;;2.60;;
13568;SDS011;6856;51.460;7.158;2023-05-07T13:08:52;3.65;;;2.80;;
13568;SDS011;6856;51.460;7.158;2023-05-07T13:11:26;5.00;;;3.03;;
13568;SDS011;6856;51.460;7.158;2023-05-07T13:14:00;5.57;;;3.05;;
13568;SDS011;6856;51.460;7.158;2023-05-07T13:16:34;3.55;;;2.92;;
13568;SDS011;6856;51.460;7.158;2023-05-07T13:19:08;2.85;;;2.38;;
13568;SDS011;6856;51.460;7.158;2023-05-07T13:21:42;3.92;;;3.03;;
13568;SDS011;6856;51.460;7.158;2023-05-07T13:24:17;4.00;;;3.03;;
13568;SDS011;6856;51.460;7.158;2023-05-07T13:26:51;3.58;;;3.00;;
13568;SDS011;6856;51.460;7.158;2023-05-07T13:29:25;3.83;;;3.08;;
13568;SDS011;6856;51.460;7.158;2023-05-07T13:32:01;4.05;;;2.75;;
13568;SDS011;6856;51.460;7.158;2023-05-07T13:34:36;4.18;;;2.70;;
13568;SDS011;6856;51.460;7.158;2023-05-07T13:37:10;3.25;;;2.55;;
13568;SDS011;6856;51.460;7.158;2023-05-07T13:39:45;3.72;;;2.80;;
13568;SDS011;6856;51.460;7.158;2023-05-07T13:42:20;3.65;;;2.80;;
13568;SDS011;6856;51.460;7.158;2023-05-07T13:44:53;4.65;;;2.25;;
13568;SDS011;6856;51.460;7.158;2023-05-07T13:47:28;5.05;;;2.70;;
13568;SDS011;6856;51.460;7.158;2023-05-07T13:50:01;3.47;;;2.67;;
13568;SDS011;6856;51.460;7.158;2023-05-07T13:52:36;4.20;;;2.72;;
13568;SDS011;6856;51.460;7.158;2023-05-07T13:55:13;3.15;;;2.65;;
13568;SDS011;6856;51.460;7.158;2023-05-07T13:57:47;3.72;;;2.70;;
13568;SDS011;6856;51.460;7.158;2023-05-07T14:00:28;3.45;;;3.00;;
13568;SDS011;6856;51.460;7.158;2023-05-07T14:03:03;3.67;;;2.80;;
13568;SDS011;6856;51.460;7.158;2023-05-07T14:05:38;4.05;;;3.40;;
13568;SDS011;6856;51.460;7.158;2023-05-07T14:08:12;4.53;;;3.20;;
13568;SDS011;6856;51.460;7.158;2023-05-07T14:10:47;4.72;;;3.67;;
13568;SDS011;6856;51.460;7.158;2023-05-07T14:13:21;5.63;;;4.20;;
13568;SDS011;6856;51.460;7.158;2023-05-07T14:15:55;5.07;;;3.92;;
13568;SDS011;6856;51.460;7.158;2023-05-07T14:18:29;4.93;;;3.45;;
13568;SDS011;6856;51.460;7.158;2023-05-07T14:21:03;3.67;;;3.28;;
13568;SDS011;6856;51.460;7.158;2023-05-07T14:23:41;3.35;;;2.92;;
13568;SDS011;6856;51.460;7.158;2023-05-07T14:26:16;4.13;;;3.10;;
13568;SDS011;6856;51.460;7.158;2023-05-07T14:28:50;3.47;;;3.00;;
13568;SDS011;6856;51.460;7.158;2023-05-07T14:31:24;4.30;;;3.05;;
13568;SDS011;6856;51.460;7.158;2023-05-07T14:33:58;4.32;;;2.80;;
13568;SDS011;6856;51.460;7.158;2023-05-07T14:36:33;3.65;;;3.15;;
13568;SDS011;6856;51.460;7.158;2023-05-07T14:39:07;3.58;;;2.85;;
13568;SDS011;6856;51.460;7.158;2023-05-07T14:41:42;3.83;;;2.88;;
13568;SDS011;6856;51.460;7.158;2023-05-07T14:44:16;3.90;;;3.30;;
13568;SDS011;6856;51.460;7.158;2023-05-07T14:46:50;3.78;;;3.00;;
13568;SDS011;6856;51.460;7.158;2023-05-07T14:49:23;3.13;;;2.25;;
13568;SDS011;6856;51.460;7.158;2023-05-07T14:51:58;3.70;;;2.47;;
13568;SDS011;6856;51.460;7.158;2023-05-07T14:54:33;2.65;;;2.45;;
13568;SDS011;6856;51.460;7.158;2023-05-07T14:57:10;4.47;;;3.28;;
13568;SDS011;6856;51.460;7.158;2023-05-07T14:59:47;4.25;;;3.35;;
13568;SDS011;6856;51.460;7.158;2023-05-07T15:02:22;4.38;;;3.08;;
13568;SDS011;6856;51.460;7.158;2023-05-07T15:04:56;10.05;;;8.10;;
13568;SDS011;6856;51.460;7.158;2023-05-07T15:07:30;6.47;;;5.28;;
13568;SDS011;6856;51.460;7.158;2023-05-07T15:10:06;4.88;;;3.92;;
13568;SDS011;6856;51.460;7.158;2023-05-07T15:12:42;4.65;;;3.05;;
13568;SDS011;6856;51.460;7.158;2023-05-07T15:15:16;4.28;;;2.92;;
13568;SDS011;6856;51.460;7.158;2023-05-07T15:17:51;3.80;;;3.08;;
13568;SDS011;6856;51.460;7.158;2023-05-07T15:20:25;3.35;;;3.05;;
13568;SDS011;6856;51.460;7.158;2023-05-07T15:22:59;4.18;;;3.05;;
13568;SDS011;6856;51.460;7.158;2023-05-07T15:25:34;3.55;;;2.92;;
13568;SDS011;6856;51.460;7.158;2023-05-07T15:28:10;4.40;;;3.20;;
13568;SDS011;6856;51.460;7.158;2023-05-07T15:30:44;3.80;;;3.38;;
13568;SDS011;6856;51.460;7.158;2023-05-07T15:33:17;3.80;;;3.22;;
13568;SDS011;6856;51.460;7.158;2023-05-07T15:35:53;4.05;;;3.55;;
13568;SDS011;6856;51.460;7.158;2023-05-07T15:38:30;4.40;;;3.58;;
13568;SDS011;6856;51.460;7.158;2023-05-07T15:41:04;4.50;;;3.60;;
13568;SDS011;6856;51.460;7.158;2023-05-07T15:43:43;3.63;;;3.05;;
13568;SDS011;6856;51.460;7.158;2023-05-07T15:46:21;4.22;;;3.42;;
13568;SDS011;6856;51.460;7.158;2023-05-07T15:48:57;5.10;;;2.92;;
13568;SDS011;6856;51.460;7.158;2023-05-07T15:51:34;4.10;;;3.05;;
13568;SDS011;6856;51.460;7.158;2023-05-07T15:54:08;3.58;;;2.53;;
13568;SDS011;6856;51.460;7.158;2023-05-07T15:56:41;2.90;;;2.10;;
13568;SDS011;6856;51.460;7.158;2023-05-07T15:59:17;3.10;;;2.08;;
13568;SDS011;6856;51.460;7.158;2023-05-07T16:01:51;2.30;;;1.73;;